sensor_id;sensor_type;location;lat;lon;timestamp;pressure;altitude;pressure_sealevel;temperature;humidity
46007;BME280;31738;50.188;8.524;2024-03-08T00:00:34;99105.56;;;5.95;64.30
46007;BME280;31738;50.188;8.524;2024-03-08T00:03:03;99109.81;;;5.96;64.39
46007;BME280;31738;50.188;8.524;2024-03-08T00:05:34;99109.00;;;5.95;64.59
46007;BME280;31738;50.188;8.524;2024-03-08T00:07:59;99107.63;;;5.93;64.86
46007;BME280;31738;50.188;8.524;2024-03-08T00:10:25;99103.31;;;5.92;64.43
46007;BME280;31738;50.188;8.524;2024-03-08T00:12:54;99102.53;;;5.91;65.02
46007;BME280;31738;50.188;8.524;2024-03-08T00:15:26;99104.38;;;5.91;64.73
46007;BME280;31738;50.188;8.524;2024-03-08T00:17:51;99099.28;;;5.89;64.58
46007;BME280;31738;50.188;8.524;2024-03-08T00:20:17;99102.66;;;5.85;64.73
46007;BME280;31738;50.188;8.524;2024-03-08T00:22:43;99096.94;;;5.81;65.17
46007;BME280;31738;50.188;8.524;2024-03-08T00:25:17;99099.28;;;5.78;64.76
46007;BME280;31738;50.188;8.524;2024-03-08T00:27:44;99096.03;;;5.76;65.13
46007;BME280;31738;50.188;8.524;2024-03-08T00:30:12;99092.78;;;5.74;64.65
46007;BME280;31738;50.188;8.524;2024-03-08T00:32:38;99097.56;;;5.72;65.34
46007;BME280;31738;50.188;8.524;2024-03-08T00:35:04;99089.22;;;5.68;64.89
46007;BME280;31738;50.188;8.524;2024-03-08T00:37:29;99085.16;;;5.66;65.43
46007;BME280;31738;50.188;8.524;2024-03-08T00:39:55;99085.53;;;5.58;65.25
46007;BME280;31738;50.188;8.524;2024-03-08T00:42:24;99086.00;;;5.55;65.39
46007;BME280;31738;50.188;8.524;2024-03-08T00:44:49;99080.56;;;5.50;65.23
46007;BME280;31738;50.188;8.524;2024-03-08T00:47:16;99073.63;;;5.49;65.60
46007;BME280;31738;50.188;8.524;2024-03-08T00:49:42;99072.47;;;5.45;65.88
46007;BME280;31738;50.188;8.524;2024-03-08T00:52:10;99063.34;;;5.41;65.49
46007;BME280;31738;50.188;8.524;2024-03-08T00:54:35;99071.66;;;5.32;65.53
46007;BME280;31738;50.188;8.524;2024-03-08T00:57:01;99063.91;;;5.31;65.71
46007;BME280;31738;50.188;8.524;2024-03-08T00:59:31;99064.72;;;5.32;65.86
46007;BME280;31738;50.188;8.524;2024-03-08T01:02:00;99056.63;;;5.26;66.15
46007;BME280;31738;50.188;8.524;2024-03-08T01:04:26;99056.03;;;5.24;65.71
46007;BME280;31738;50.188;8.524;2024-03-08T01:06:55;99051.78;;;5.23;65.49
46007;BME280;31738;50.188;8.524;2024-03-08T01:09:25;99044.25;;;5.20;65.83
46007;BME280;31738;50.188;8.524;2024-03-08T01:11:52;99035.13;;;5.16;65.78
46007;BME280;31738;50.188;8.524;2024-03-08T01:14:20;99023.91;;;5.14;66.03
46007;BME280;31738;50.188;8.524;2024-03-08T01:16:48;99030.28;;;5.13;65.82
46007;BME280;31738;50.188;8.524;2024-03-08T01:19:19;99029.94;;;5.10;66.21
46007;BME280;31738;50.188;8.524;2024-03-08T01:21:53;99026.91;;;5.06;66.55
46007;BME280;31738;50.188;8.524;2024-03-08T01:24:25;99017.34;;;5.05;66.07
46007;BME280;31738;50.188;8.524;2024-03-08T01:26:50;99027.00;;;5.00;66.36
46007;BME280;31738;50.188;8.524;2024-03-08T01:29:16;99010.75;;;4.96;66.55
46007;BME280;31738;50.188;8.524;2024-03-08T01:31:41;99005.66;;;4.95;66.52
46007;BME280;31738;50.188;8.524;2024-03-08T01:34:10;99001.59;;;4.92;66.21
46007;BME280;31738;50.188;8.524;2024-03-08T01:36:36;98998.94;;;4.92;66.22
46007;BME280;31738;50.188;8.524;2024-03-08T01:39:02;98996.75;;;4.89;66.05
46007;BME280;31738;50.188;8.524;2024-03-08T01:41:36;98998.84;;;4.87;66.11
46007;BME280;31738;50.188;8.524;2024-03-08T01:44:02;98990.75;;;4.82;66.55
46007;BME280;31738;50.188;8.524;2024-03-08T01:46:33;99001.38;;;4.82;66.08
46007;BME280;31738;50.188;8.524;2024-03-08T01:49:00;98988.63;;;4.84;66.12
46007;BME280;31738;50.188;8.524;2024-03-08T01:51:35;98997.53;;;4.78;66.76
46007;BME280;31738;50.188;8.524;2024-03-08T01:54:01;98989.00;;;4.76;66.44
46007;BME280;31738;50.188;8.524;2024-03-08T01:56:28;98990.03;;;4.75;66.42
46007;BME280;31738;50.188;8.524;2024-03-08T01:58:54;98990.25;;;4.74;66.46
46007;BME280;31738;50.188;8.524;2024-03-08T02:01:20;98981.94;;;4.70;66.46
46007;BME280;31738;50.188;8.524;2024-03-08T02:03:46;98977.66;;;4.69;66.58
46007;BME280;31738;50.188;8.524;2024-03-08T02:06:12;98973.41;;;4.68;66.73
46007;BME280;31738;50.188;8.524;2024-03-08T02:08:48;98966.94;;;4.64;66.95
46007;BME280;31738;50.188;8.524;2024-03-08T02:11:17;98973.50;;;4.62;66.78
46007;BME280;31738;50.188;8.524;2024-03-08T02:13:47;98971.66;;;4.62;66.39
46007;BME280;31738;50.188;8.524;2024-03-08T02:16:25;98969.00;;;4.62;66.59
46007;BME280;31738;50.188;8.524;2024-03-08T02:18:53;98969.47;;;4.59;66.84
46007;BME280;31738;50.188;8.524;2024-03-08T02:21:19;98961.72;;;4.58;66.64
46007;BME280;31738;50.188;8.524;2024-03-08T02:23:44;98962.97;;;4.55;66.87
46007;BME280;31738;50.188;8.524;2024-03-08T02:26:10;98955.47;;;4.52;66.94
46007;BME280;31738;50.188;8.524;2024-03-08T02:28:39;98954.91;;;4.50;67.23
46007;BME280;31738;50.188;8.524;2024-03-08T02:31:17;98960.22;;;4.50;66.56
46007;BME280;31738;50.188;8.524;2024-03-08T02:33:56;98961.13;;;4.44;67.20
46007;BME280;31738;50.188;8.524;2024-03-08T02:36:24;98956.59;;;4.45;67.37
46007;BME280;31738;50.188;8.524;2024-03-08T02:38:50;98951.97;;;4.40;66.94
46007;BME280;31738;50.188;8.524;2024-03-08T02:41:19;98956.72;;;4.38;67.29
46007;BME280;31738;50.188;8.524;2024-03-08T02:43:45;98948.19;;;4.36;67.39
46007;BME280;31738;50.188;8.524;2024-03-08T02:46:14;98946.56;;;4.35;67.61
46007;BME280;31738;50.188;8.524;2024-03-08T02:48:46;98943.31;;;4.33;67.22
46007;BME280;31738;50.188;8.524;2024-03-08T02:51:15;98933.16;;;4.30;67.93
46007;BME280;31738;50.188;8.524;2024-03-08T02:53:56;98938.94;;;4.27;67.48
46007;BME280;31738;50.188;8.524;2024-03-08T02:56:22;98929.31;;;4.26;67.47
46007;BME280;31738;50.188;8.524;2024-03-08T02:58:50;98921.34;;;4.26;67.45
46007;BME280;31738;50.188;8.524;2024-03-08T03:01:16;98928.75;;;4.24;68.19
46007;BME280;31738;50.188;8.524;2024-03-08T03:03:41;98922.28;;;4.20;67.83
46007;BME280;31738;50.188;8.524;2024-03-08T03:06:13;98922.72;;;4.17;67.57
46007;BME280;31738;50.188;8.524;2024-03-08T03:08:45;98923.56;;;4.18;67.83
46007;BME280;31738;50.188;8.524;2024-03-08T03:11:11;98919.50;;;4.15;68.39
46007;BME280;31738;50.188;8.524;2024-03-08T03:13:44;98912.56;;;4.14;67.84
46007;BME280;31738;50.188;8.524;2024-03-08T03:16:22;98911.41;;;4.10;68.14
46007;BME280;31738;50.188;8.524;2024-03-08T03:18:48;98910.81;;;4.08;68.33
46007;BME280;31738;50.188;8.524;2024-03-08T03:21:14;98912.31;;;4.04;68.34
46007;BME280;31738;50.188;8.524;2024-03-08T03:23:40;98909.09;;;4.02;68.76
46007;BME280;31738;50.188;8.524;2024-03-08T03:26:06;98906.88;;;3.99;68.47
46007;BME280;31738;50.188;8.524;2024-03-08T03:28:37;98908.94;;;3.97;68.56
46007;BME280;31738;50.188;8.524;2024-03-08T03:31:07;98904.69;;;3.96;68.56
46007;BME280;31738;50.188;8.524;2024-03-08T03:33:35;98894.53;;;3.93;68.86
46007;BME280;31738;50.188;8.524;2024-03-08T03:36:05;98899.00;;;3.93;68.93
46007;BME280;31738;50.188;8.524;2024-03-08T03:38:39;98897.03;;;3.88;68.71
46007;BME280;31738;50.188;8.524;2024-03-08T03:41:12;98895.44;;;3.87;68.88
46007;BME280;31738;50.188;8.524;2024-03-08T03:43:39;98889.97;;;3.71;69.74
46007;BME280;31738;50.188;8.524;2024-03-08T03:46:06;98886.34;;;3.65;68.93
46007;BME280;31738;50.188;8.524;2024-03-08T03:48:32;98892.38;;;3.72;69.28
46007;BME280;31738;50.188;8.524;2024-03-08T03:50:57;98888.25;;;3.76;68.79
46007;BME280;31738;50.188;8.524;2024-03-08T03:53:23;98881.69;;;3.79;69.23
46007;BME280;31738;50.188;8.524;2024-03-08T03:55:51;98880.06;;;3.78;69.62
46007;BME280;31738;50.188;8.524;2024-03-08T03:58:16;98882.72;;;3.78;69.32
46007;BME280;31738;50.188;8.524;2024-03-08T04:00:48;98887.44;;;3.76;69.29
46007;BME280;31738;50.188;8.524;2024-03-08T04:03:13;98880.16;;;3.71;69.70
46007;BME280;31738;50.188;8.524;2024-03-08T04:05:39;98879.34;;;3.71;69.56
46007;BME280;31738;50.188;8.524;2024-03-08T04:08:05;98877.25;;;3.73;69.93
46007;BME280;31738;50.188;8.524;2024-03-08T04:10:31;98874.38;;;3.74;69.68
46007;BME280;31738;50.188;8.524;2024-03-08T04:12:57;98876.03;;;3.75;69.14
46007;BME280;31738;50.188;8.524;2024-03-08T04:15:22;98877.03;;;3.74;69.21
46007;BME280;31738;50.188;8.524;2024-03-08T04:17:48;98875.44;;;3.73;69.91
46007;BME280;31738;50.188;8.524;2024-03-08T04:20:13;98879.13;;;3.72;69.92
46007;BME280;31738;50.188;8.524;2024-03-08T04:22:39;98879.34;;;3.71;69.69
46007;BME280;31738;50.188;8.524;2024-03-08T04:25:06;98874.84;;;3.71;69.62
46007;BME280;31738;50.188;8.524;2024-03-08T04:27:32;98875.28;;;3.68;70.09
46007;BME280;31738;50.188;8.524;2024-03-08T04:29:58;98863.91;;;3.68;69.64
46007;BME280;31738;50.188;8.524;2024-03-08T04:32:24;98868.38;;;3.67;70.02
46007;BME280;31738;50.188;8.524;2024-03-08T04:34:50;98863.06;;;3.67;70.28
46007;BME280;31738;50.188;8.524;2024-03-08T04:37:16;98868.84;;;3.64;70.46
46007;BME280;31738;50.188;8.524;2024-03-08T04:39:46;98863.97;;;3.61;70.10
46007;BME280;31738;50.188;8.524;2024-03-08T04:42:12;98854.28;;;3.55;70.90
46007;BME280;31738;50.188;8.524;2024-03-08T04:44:39;98855.88;;;3.56;70.87
46007;BME280;31738;50.188;8.524;2024-03-08T04:47:04;98850.59;;;3.56;70.36
46007;BME280;31738;50.188;8.524;2024-03-08T04:49:32;98857.97;;;3.54;70.40
46007;BME280;31738;50.188;8.524;2024-03-08T04:52:01;98857.97;;;3.54;70.54
46007;BME280;31738;50.188;8.524;2024-03-08T04:54:27;98860.03;;;3.52;71.08
46007;BME280;31738;50.188;8.524;2024-03-08T04:56:53;98854.72;;;3.52;70.46
46007;BME280;31738;50.188;8.524;2024-03-08T04:59:19;98860.84;;;3.53;71.07
46007;BME280;31738;50.188;8.524;2024-03-08T05:01:44;98852.31;;;3.50;70.42
46007;BME280;31738;50.188;8.524;2024-03-08T05:04:10;98850.44;;;3.51;70.86
46007;BME280;31738;50.188;8.524;2024-03-08T05:06:35;98846.19;;;3.50;70.90
46007;BME280;31738;50.188;8.524;2024-03-08T05:09:02;98844.13;;;3.52;70.99
46007;BME280;31738;50.188;8.524;2024-03-08T05:11:42;98838.22;;;3.50;71.13
46007;BME280;31738;50.188;8.524;2024-03-08T05:14:09;98831.09;;;3.50;70.73
46007;BME280;31738;50.188;8.524;2024-03-08T05:16:35;98837.41;;;3.49;70.63
46007;BME280;31738;50.188;8.524;2024-03-08T05:19:02;98840.50;;;3.46;71.35
46007;BME280;31738;50.188;8.524;2024-03-08T05:21:27;98841.78;;;3.44;70.82
46007;BME280;31738;50.188;8.524;2024-03-08T05:23:54;98838.53;;;3.42;70.63
46007;BME280;31738;50.188;8.524;2024-03-08T05:26:20;98833.69;;;3.39;71.22
46007;BME280;31738;50.188;8.524;2024-03-08T05:28:48;98832.06;;;3.38;70.83
46007;BME280;31738;50.188;8.524;2024-03-08T05:31:20;98829.88;;;3.35;71.16
46007;BME280;31738;50.188;8.524;2024-03-08T05:33:49;98833.56;;;3.34;71.18
46007;BME280;31738;50.188;8.524;2024-03-08T05:36:15;98831.94;;;3.33;71.74
46007;BME280;31738;50.188;8.524;2024-03-08T05:38:44;98835.63;;;3.32;71.48
46007;BME280;31738;50.188;8.524;2024-03-08T05:41:10;98833.19;;;3.30;71.72
46007;BME280;31738;50.188;8.524;2024-03-08T05:43:37;98832.63;;;3.28;71.69
46007;BME280;31738;50.188;8.524;2024-03-08T05:46:03;98823.28;;;3.26;71.51
46007;BME280;31738;50.188;8.524;2024-03-08T05:48:30;98827.31;;;3.28;71.95
46007;BME280;31738;50.188;8.524;2024-03-08T05:50:57;98826.53;;;3.28;72.19
46007;BME280;31738;50.188;8.524;2024-03-08T05:53:23;98822.81;;;3.29;72.11
46007;BME280;31738;50.188;8.524;2024-03-08T05:55:48;98818.56;;;3.28;71.86
46007;BME280;31738;50.188;8.524;2024-03-08T05:58:15;98816.47;;;3.30;72.35
46007;BME280;31738;50.188;8.524;2024-03-08T06:00:40;98819.13;;;3.30;71.57
46007;BME280;31738;50.188;8.524;2024-03-08T06:03:06;98813.84;;;3.30;71.96
46007;BME280;31738;50.188;8.524;2024-03-08T06:05:31;98809.56;;;3.29;71.68
46007;BME280;31738;50.188;8.524;2024-03-08T06:07:57;98818.56;;;3.28;72.17
46007;BME280;31738;50.188;8.524;2024-03-08T06:10:22;98813.28;;;3.28;72.49
46007;BME280;31738;50.188;8.524;2024-03-08T06:12:48;98805.78;;;3.25;71.68
46007;BME280;31738;50.188;8.524;2024-03-08T06:15:13;98798.84;;;3.24;72.16
46007;BME280;31738;50.188;8.524;2024-03-08T06:17:42;98797.38;;;3.28;71.87
46007;BME280;31738;50.188;8.524;2024-03-08T06:20:07;98797.16;;;3.29;71.85
46007;BME280;31738;50.188;8.524;2024-03-08T06:22:37;98796.91;;;3.31;71.95
46007;BME280;31738;50.188;8.524;2024-03-08T06:57:03;98793.47;;;3.42;72.28
46007;BME280;31738;50.188;8.524;2024-03-08T06:59:29;98792.78;;;3.46;72.05
46007;BME280;31738;50.188;8.524;2024-03-08T07:01:58;98799.66;;;3.54;71.62
46007;BME280;31738;50.188;8.524;2024-03-08T07:04:28;98786.50;;;3.59;72.12
46007;BME280;31738;50.188;8.524;2024-03-08T07:07:02;98784.78;;;3.65;72.32
46007;BME280;31738;50.188;8.524;2024-03-08T07:09:28;98781.47;;;3.69;72.04
46007;BME280;31738;50.188;8.524;2024-03-08T07:11:53;98787.44;;;3.76;71.56
46007;BME280;31738;50.188;8.524;2024-03-08T07:14:28;98777.56;;;3.83;71.99
46007;BME280;31738;50.188;8.524;2024-03-08T07:17:00;98777.09;;;3.86;71.75
46007;BME280;31738;50.188;8.524;2024-03-08T07:19:30;98774.31;;;3.93;72.23
46007;BME280;31738;50.188;8.524;2024-03-08T07:21:58;98772.59;;;3.98;72.07
46007;BME280;31738;50.188;8.524;2024-03-08T07:24:24;98773.16;;;4.00;71.72
46007;BME280;31738;50.188;8.524;2024-03-08T07:27:36;98771.09;;;4.02;71.82
46007;BME280;31738;50.188;8.524;2024-03-08T07:30:15;98773.06;;;4.07;71.49
46007;BME280;31738;50.188;8.524;2024-03-08T07:33:16;98765.59;;;4.15;71.28
46007;BME280;31738;50.188;8.524;2024-03-08T07:35:42;98765.13;;;4.18;71.07
46007;BME280;31738;50.188;8.524;2024-03-08T07:38:25;98763.97;;;4.26;71.78
46007;BME280;31738;50.188;8.524;2024-03-08T07:40:51;98764.88;;;4.31;70.95
46007;BME280;31738;50.188;8.524;2024-03-08T07:43:17;98759.91;;;4.35;71.21
46007;BME280;31738;50.188;8.524;2024-03-08T07:45:43;98762.22;;;4.43;71.37
46007;BME280;31738;50.188;8.524;2024-03-08T07:48:21;98758.84;;;4.47;71.00
46007;BME280;31738;50.188;8.524;2024-03-08T07:50:48;98762.75;;;4.56;70.69
46007;BME280;31738;50.188;8.524;2024-03-08T07:53:15;98763.91;;;4.60;71.08
46007;BME280;31738;50.188;8.524;2024-03-08T07:55:51;98764.25;;;4.64;70.47
46007;BME280;31738;50.188;8.524;2024-03-08T07:58:16;98763.31;;;4.70;70.59
46007;BME280;31738;50.188;8.524;2024-03-08T08:00:52;98754.16;;;4.77;70.82
46007;BME280;31738;50.188;8.524;2024-03-08T08:03:32;98749.44;;;4.79;70.97
46007;BME280;31738;50.188;8.524;2024-03-08T08:06:23;98746.41;;;4.87;70.37
46007;BME280;31738;50.188;8.524;2024-03-08T08:09:07;98745.34;;;4.88;69.98
46007;BME280;31738;50.188;8.524;2024-03-08T08:11:56;98747.28;;;4.93;70.44
46007;BME280;31738;50.188;8.524;2024-03-08T08:14:35;98751.44;;;5.00;70.19
46007;BME280;31738;50.188;8.524;2024-03-08T08:17:33;98740.09;;;5.05;69.88
46007;BME280;31738;50.188;8.524;2024-03-08T08:20:47;98743.50;;;5.17;70.03
46007;BME280;31738;50.188;8.524;2024-03-08T08:23:53;98742.22;;;5.19;69.65
46007;BME280;31738;50.188;8.524;2024-03-08T08:26:20;98741.75;;;5.22;69.60
46007;BME280;31738;50.188;8.524;2024-03-08T08:28:46;98744.16;;;5.24;69.75
46007;BME280;31738;50.188;8.524;2024-03-08T08:31:14;98731.38;;;5.38;69.65
46007;BME280;31738;50.188;8.524;2024-03-08T08:33:40;98724.28;;;5.43;69.39
46007;BME280;31738;50.188;8.524;2024-03-08T08:36:06;98728.09;;;5.47;69.30
46007;BME280;31738;50.188;8.524;2024-03-08T08:38:31;98729.53;;;5.55;69.47
46007;BME280;31738;50.188;8.524;2024-03-08T08:40:57;98721.63;;;5.60;68.91
46007;BME280;31738;50.188;8.524;2024-03-08T08:43:23;98725.53;;;5.69;68.88
46007;BME280;31738;50.188;8.524;2024-03-08T08:45:50;98722.38;;;5.72;69.07
46007;BME280;31738;50.188;8.524;2024-03-08T08:48:19;98718.84;;;5.83;69.15
46007;BME280;31738;50.188;8.524;2024-03-08T08:50:45;98718.34;;;5.86;68.89
46007;BME280;31738;50.188;8.524;2024-03-08T08:53:12;98712.13;;;5.97;68.48
46007;BME280;31738;50.188;8.524;2024-03-08T08:55:40;98713.41;;;6.11;68.53
46007;BME280;31738;50.188;8.524;2024-03-08T08:58:05;98708.19;;;6.21;68.30
46007;BME280;31738;50.188;8.524;2024-03-08T09:00:33;98708.28;;;6.26;68.15
46007;BME280;31738;50.188;8.524;2024-03-08T09:03:00;98705.28;;;6.39;67.90
46007;BME280;31738;50.188;8.524;2024-03-08T09:05:25;98701.97;;;6.53;68.10
46007;BME280;31738;50.188;8.524;2024-03-08T09:07:51;98702.41;;;6.67;67.51
46007;BME280;31738;50.188;8.524;2024-03-08T09:10:18;98687.16;;;6.84;67.57
46007;BME280;31738;50.188;8.524;2024-03-08T09:12:44;98700.13;;;7.02;66.87
46007;BME280;31738;50.188;8.524;2024-03-08T09:15:10;98690.09;;;7.09;66.43
46007;BME280;31738;50.188;8.524;2024-03-08T09:17:38;98681.41;;;7.24;66.38
46007;BME280;31738;50.188;8.524;2024-03-08T09:20:08;98682.41;;;7.44;66.08
46007;BME280;31738;50.188;8.524;2024-03-08T09:22:35;98676.34;;;7.54;65.96
46007;BME280;31738;50.188;8.524;2024-03-08T09:25:01;98675.69;;;7.73;65.83
46007;BME280;31738;50.188;8.524;2024-03-08T09:27:27;98675.75;;;7.83;64.94
46007;BME280;31738;50.188;8.524;2024-03-08T09:29:53;98681.91;;;7.84;64.36
46007;BME280;31738;50.188;8.524;2024-03-08T09:32:19;98675.28;;;7.91;64.61
46007;BME280;31738;50.188;8.524;2024-03-08T09:34:44;98679.91;;;8.06;63.71
46007;BME280;31738;50.188;8.524;2024-03-08T09:37:10;98671.19;;;8.20;63.73
46007;BME280;31738;50.188;8.524;2024-03-08T09:39:35;98675.47;;;8.21;63.71
46007;BME280;31738;50.188;8.524;2024-03-08T09:42:01;98672.06;;;8.31;63.03
46007;BME280;31738;50.188;8.524;2024-03-08T09:44:27;98673.31;;;8.18;63.12
46007;BME280;31738;50.188;8.524;2024-03-08T09:47:07;98677.66;;;8.24;62.70
46007;BME280;31738;50.188;8.524;2024-03-08T09:49:34;98678.50;;;8.35;63.52
46007;BME280;31738;50.188;8.524;2024-03-08T09:52:00;98673.47;;;8.38;62.89
46007;BME280;31738;50.188;8.524;2024-03-08T09:54:25;98674.38;;;8.17;62.28
46007;BME280;31738;50.188;8.524;2024-03-08T09:57:06;98673.28;;;8.13;62.60
46007;BME280;31738;50.188;8.524;2024-03-08T09:59:42;98670.69;;;8.23;62.87
46007;BME280;31738;50.188;8.524;2024-03-08T10:02:16;98671.88;;;8.47;61.65
46007;BME280;31738;50.188;8.524;2024-03-08T10:04:42;98661.78;;;8.64;61.70
46007;BME280;31738;50.188;8.524;2024-03-08T10:07:07;98658.88;;;8.76;61.22
46007;BME280;31738;50.188;8.524;2024-03-08T10:09:38;98653.84;;;8.90;60.55
46007;BME280;31738;50.188;8.524;2024-03-08T10:12:05;98658.91;;;8.91;60.28
46007;BME280;31738;50.188;8.524;2024-03-08T10:14:30;98658.13;;;8.96;60.03
46007;BME280;31738;50.188;8.524;2024-03-08T10:16:59;98656.78;;;9.03;60.05
46007;BME280;31738;50.188;8.524;2024-03-08T10:19:31;98651.22;;;9.25;60.54
46007;BME280;31738;50.188;8.524;2024-03-08T10:22:02;98657.38;;;9.45;59.71
46007;BME280;31738;50.188;8.524;2024-03-08T10:24:29;98648.56;;;9.55;59.11
46007;BME280;31738;50.188;8.524;2024-03-08T10:27:00;98652.84;;;9.61;58.91
46007;BME280;31738;50.188;8.524;2024-03-08T10:29:32;98658.16;;;9.66;58.16
46007;BME280;31738;50.188;8.524;2024-03-08T10:31:58;98657.91;;;9.72;58.34
46007;BME280;31738;50.188;8.524;2024-03-08T10:34:32;98656.56;;;9.80;58.15
46007;BME280;31738;50.188;8.524;2024-03-08T10:37:04;98654.41;;;9.87;57.63
46007;BME280;31738;50.188;8.524;2024-03-08T10:39:48;98658.44;;;9.79;57.56
46007;BME280;31738;50.188;8.524;2024-03-08T10:42:21;98655.47;;;9.91;57.53
46007;BME280;31738;50.188;8.524;2024-03-08T10:45:01;98656.25;;;10.06;57.19
46007;BME280;31738;50.188;8.524;2024-03-08T10:47:38;98655.47;;;10.11;57.15
46007;BME280;31738;50.188;8.524;2024-03-08T10:50:10;98657.03;;;10.22;56.48
46007;BME280;31738;50.188;8.524;2024-03-08T10:52:38;98653.53;;;10.31;57.03
46007;BME280;31738;50.188;8.524;2024-03-08T10:55:20;98646.81;;;10.39;55.95
46007;BME280;31738;50.188;8.524;2024-03-08T10:57:46;98654.28;;;10.42;55.65
46007;BME280;31738;50.188;8.524;2024-03-08T11:00:26;98661.31;;;10.28;54.98
46007;BME280;31738;50.188;8.524;2024-03-08T11:02:53;98654.59;;;10.35;55.61
46007;BME280;31738;50.188;8.524;2024-03-08T11:05:51;98656.97;;;10.42;53.76
46007;BME280;31738;50.188;8.524;2024-03-08T11:11:29;98669.25;;;10.53;53.43
46007;BME280;31738;50.188;8.524;2024-03-08T11:14:02;98645.66;;;10.55;54.53
46007;BME280;31738;50.188;8.524;2024-03-08T11:21:37;98636.09;;;10.88;54.44
46007;BME280;31738;50.188;8.524;2024-03-08T11:24:26;98638.69;;;11.03;53.99
46007;BME280;31738;50.188;8.524;2024-03-08T11:27:12;98638.97;;;11.01;53.79
46007;BME280;31738;50.188;8.524;2024-03-08T11:30:02;98635.69;;;11.09;53.61
46007;BME280;31738;50.188;8.524;2024-03-08T11:32:52;98627.56;;;11.19;52.73
46007;BME280;31738;50.188;8.524;2024-03-08T11:35:23;98621.59;;;11.27;53.45
46007;BME280;31738;50.188;8.524;2024-03-08T11:37:52;98605.19;;;11.34;53.01
46007;BME280;31738;50.188;8.524;2024-03-08T11:40:23;98617.59;;;11.25;51.36
46007;BME280;31738;50.188;8.524;2024-03-08T11:43:01;98623.44;;;11.32;52.11
46007;BME280;31738;50.188;8.524;2024-03-08T11:45:38;98617.88;;;11.23;51.85
46007;BME280;31738;50.188;8.524;2024-03-08T11:48:08;98626.72;;;11.24;51.10
46007;BME280;31738;50.188;8.524;2024-03-08T11:50:51;98616.22;;;11.27;50.93
46007;BME280;31738;50.188;8.524;2024-03-08T11:53:48;98616.63;;;11.11;51.46
46007;BME280;31738;50.188;8.524;2024-03-08T11:56:28;98617.34;;;11.21;51.41
46007;BME280;31738;50.188;8.524;2024-03-08T11:58:55;98609.19;;;11.36;51.56
46007;BME280;31738;50.188;8.524;2024-03-08T12:01:38;98606.03;;;11.29;51.01
46007;BME280;31738;50.188;8.524;2024-03-08T12:04:21;98612.22;;;11.25;51.16
46007;BME280;31738;50.188;8.524;2024-03-08T12:09:43;98613.09;;;11.49;50.97
46007;BME280;31738;50.188;8.524;2024-03-08T12:12:15;98603.94;;;11.50;51.33
46007;BME280;31738;50.188;8.524;2024-03-08T12:14:52;98603.25;;;11.39;50.68
46007;BME280;31738;50.188;8.524;2024-03-08T12:17:20;98603.66;;;11.51;50.58
46007;BME280;31738;50.188;8.524;2024-03-08T12:19:48;98600.47;;;11.49;50.60
46007;BME280;31738;50.188;8.524;2024-03-08T12:22:14;98590.75;;;11.53;50.71
46007;BME280;31738;50.188;8.524;2024-03-08T12:24:40;98600.41;;;11.54;50.69
46007;BME280;31738;50.188;8.524;2024-03-08T12:27:24;98607.47;;;11.45;49.27
46007;BME280;31738;50.188;8.524;2024-03-08T12:29:54;98595.22;;;11.34;50.42
46007;BME280;31738;50.188;8.524;2024-03-08T12:32:20;98597.59;;;11.41;50.27
46007;BME280;31738;50.188;8.524;2024-03-08T12:34:52;98594.59;;;11.47;50.43
46007;BME280;31738;50.188;8.524;2024-03-08T12:37:18;98601.03;;;11.46;50.16
46007;BME280;31738;50.188;8.524;2024-03-08T12:39:44;98588.94;;;11.49;50.58
46007;BME280;31738;50.188;8.524;2024-03-08T12:42:10;98600.47;;;11.49;50.34
46007;BME280;31738;50.188;8.524;2024-03-08T12:44:35;98585.97;;;11.50;50.41
46007;BME280;31738;50.188;8.524;2024-03-08T12:47:01;98583.38;;;11.40;50.21
46007;BME280;31738;50.188;8.524;2024-03-08T12:49:26;98582.81;;;11.43;50.06
46007;BME280;31738;50.188;8.524;2024-03-08T12:51:52;98577.44;;;11.43;49.71
46007;BME280;31738;50.188;8.524;2024-03-08T12:54:17;98582.28;;;11.41;49.99
46007;BME280;31738;50.188;8.524;2024-03-08T12:56:43;98573.91;;;11.48;50.55
46007;BME280;31738;50.188;8.524;2024-03-08T12:59:08;98579.50;;;11.51;50.26
46007;BME280;31738;50.188;8.524;2024-03-08T13:01:35;98574.38;;;11.55;50.09
46007;BME280;31738;50.188;8.524;2024-03-08T13:04:04;98564.44;;;11.55;50.27
46007;BME280;31738;50.188;8.524;2024-03-08T13:06:32;98564.47;;;11.50;50.04
46007;BME280;31738;50.188;8.524;2024-03-08T13:08:58;98553.19;;;11.48;50.05
46007;BME280;31738;50.188;8.524;2024-03-08T13:11:26;98565.63;;;11.39;49.96
46007;BME280;31738;50.188;8.524;2024-03-08T13:13:52;98565.16;;;11.37;50.15
46007;BME280;31738;50.188;8.524;2024-03-08T13:16:18;98561.94;;;11.35;50.46
46007;BME280;31738;50.188;8.524;2024-03-08T13:18:46;98554.91;;;11.39;50.22
46007;BME280;31738;50.188;8.524;2024-03-08T13:21:15;98543.94;;;11.36;50.56
46007;BME280;31738;50.188;8.524;2024-03-08T13:23:44;98558.16;;;11.36;50.11
46007;BME280;31738;50.188;8.524;2024-03-08T13:26:15;98548.50;;;11.35;50.43
46007;BME280;31738;50.188;8.524;2024-03-08T13:28:47;98533.41;;;11.39;50.51
46007;BME280;31738;50.188;8.524;2024-03-08T13:31:14;98529.66;;;11.40;50.35
46007;BME280;31738;50.188;8.524;2024-03-08T13:33:41;98532.34;;;11.40;50.50
46007;BME280;31738;50.188;8.524;2024-03-08T13:36:08;98522.97;;;11.38;50.54
46007;BME280;31738;50.188;8.524;2024-03-08T13:38:44;98522.72;;;11.34;50.41
46007;BME280;31738;50.188;8.524;2024-03-08T13:41:13;98523.25;;;11.36;49.47
46007;BME280;31738;50.188;8.524;2024-03-08T13:43:46;98512.50;;;11.36;50.72
46007;BME280;31738;50.188;8.524;2024-03-08T13:46:15;98508.97;;;11.41;50.50
46007;BME280;31738;50.188;8.524;2024-03-08T13:48:44;98505.50;;;11.40;50.75
46007;BME280;31738;50.188;8.524;2024-03-08T13:51:13;98499.06;;;11.36;50.94
46007;BME280;31738;50.188;8.524;2024-03-08T13:53:41;98495.31;;;11.37;50.63
46007;BME280;31738;50.188;8.524;2024-03-08T13:56:06;98495.25;;;11.42;50.62
46007;BME280;31738;50.188;8.524;2024-03-08T13:58:35;98484.50;;;11.42;50.30
46007;BME280;31738;50.188;8.524;2024-03-08T14:01:01;98485.09;;;11.39;50.38
46007;BME280;31738;50.188;8.524;2024-03-08T14:03:28;98483.81;;;11.32;50.52